Apodaca, NM

10:29 AM MDT on October 02, 2014 (GMT -0600)
First Arroyo | Change Station
CLOSE
Current Station
Personal Weather Station
Location: Dixon, NM
Elevation: 6037 ft
Nearby Weather Stations
Active Advisory: Special Statement Active Notice: Public Information Statement

Elev 6037 ft 36.20 °N, 105.90 °W | Updated 4 minutes ago

Clear
Clear
55.3 °F
Feels Like 55.3 °F
N
0.0
Wind Variable Wind from East

Today
High -- | Low -- °F
--% Chance of Precip.
Yesterday
High -- | Low -- °F
Precip. -- in
6:59 AM 6:45 PM
First Quarter, 60% visible
Pressure 30.26 in
Visibility 10.0 miles
Clouds Clear
Dew Point 30 °F
Humidity 31%
Rainfall 0.00 in
Snow Depth 1 in , 1 in , 3 in
UV 5 out of 12
Pollen 6.00 out of 12
Air Quality Not available.
Flu Activity Not available.
METAR KSKX 021615Z AUTO 34012G21KT 10SM CLR 09/M06 A3026 RMK AO1

More Conditions Fewer Conditions

Pressure 30.26 in
Visibility 10.0 miles
Clouds Clear
Dew Point 30 °F
Humidity 31%
Rainfall 0.00 in
Snow Depth 1 in , 1 in , 3 in
UV 5 out of 12
Pollen 6.00 out of 12
Air Quality Not available.
Flu Activity Not available.
METAR KSKX 021615Z AUTO 34012G21KT 10SM CLR 09/M06 A3026 RMK AO1

More Conditions Fewer Conditions

10-Day Weather Forecast

Almanac

Astronomy

Oct. 02, 2014 Rise Set
Actual Time 6:59 AM MDT 6:45 PM MDT
Civil Twilight 6:33 AM MDT 7:11 PM MDT
Nautical Twilight 6:03 AM MDT 7:40 PM MDT
Astronomical Twilight 5:34 AM MDT 8:10 PM MDT
Moon 2:44 PM MDT 12:28 AM MDT
Length of Visible Light 12h 37m
Length of Day
11h 46m
Tomorrow will be 2m 16s shorter.
First Quarter, 60% of the Moon is Illuminated
Today
First Quarter
Oct 8
Full
Oct 15
Last Quarter
Oct 23
New
Oct 30
First Quarter

Today's Extremes

State Highs State Lows

Community

WunderPhotos

Upload Photos

1,758,290 photos uploaded!

WunderBlogs® & News

Nearby

Snow Depth

Station Depth Elevation
Signal Peak 1 in 8360 ft
Sierra Blanca 1 in 10280 ft
Chamita 1 in 8400 ft
Wesner Springs 3 in 11120 ft
Silver Creek Divide 22 in 9000 ft

Earthquake Activity

City Distance Mag. Time & Date
Trinidad, Colorado 78 miles 2.9 3:55 AM MDT
2014-09-30
Minimum magnitude displayed is 2.5.

Coastal Water Temperatures

Place Temperature
No Stations Reporting

Nearby Weather Stations